sensor_id;sensor_type;location;lat;lon;timestamp;P1;durP1;ratioP1;P2;durP2;ratioP2
66384;SDS011;53426;55.872;37.462;2023-04-23T00:01:25;35.13;;;13.65;;
66384;SDS011;53426;55.872;37.462;2023-04-23T00:03:56;27.80;;;13.23;;
66384;SDS011;53426;55.872;37.462;2023-04-23T00:06:22;29.02;;;14.27;;
66384;SDS011;53426;55.872;37.462;2023-04-23T00:08:52;30.17;;;13.18;;
66384;SDS011;53426;55.872;37.462;2023-04-23T00:11:18;28.75;;;12.63;;
66384;SDS011;53426;55.872;37.462;2023-04-23T00:13:45;46.72;;;13.23;;
66384;SDS011;53426;55.872;37.462;2023-04-23T00:16:13;26.65;;;13.23;;
66384;SDS011;53426;55.872;37.462;2023-04-23T00:18:40;27.50;;;14.15;;
66384;SDS011;53426;55.872;37.462;2023-04-23T00:21:09;32.85;;;14.00;;
66384;SDS011;53426;55.872;37.462;2023-04-23T00:23:35;32.97;;;13.57;;
66384;SDS011;53426;55.872;37.462;2023-04-23T00:26:22;34.42;;;15.13;;
66384;SDS011;53426;55.872;37.462;2023-04-23T00:28:48;51.95;;;14.93;;
66384;SDS011;53426;55.872;37.462;2023-04-23T00:31:15;43.15;;;16.05;;
66384;SDS011;53426;55.872;37.462;2023-04-23T00:33:42;34.10;;;14.43;;
66384;SDS011;53426;55.872;37.462;2023-04-23T00:36:09;49.78;;;14.77;;
66384;SDS011;53426;55.872;37.462;2023-04-23T00:38:35;28.50;;;14.75;;
66384;SDS011;53426;55.872;37.462;2023-04-23T00:41:01;33.92;;;15.27;;
66384;SDS011;53426;55.872;37.462;2023-04-23T00:43:27;38.03;;;14.88;;
66384;SDS011;53426;55.872;37.462;2023-04-23T00:45:54;28.48;;;13.35;;
66384;SDS011;53426;55.872;37.462;2023-04-23T00:48:20;27.85;;;13.73;;
66384;SDS011;53426;55.872;37.462;2023-04-23T00:50:47;35.22;;;13.35;;
66384;SDS011;53426;55.872;37.462;2023-04-23T00:53:14;34.25;;;14.60;;
66384;SDS011;53426;55.872;37.462;2023-04-23T00:55:40;31.85;;;13.68;;
66384;SDS011;53426;55.872;37.462;2023-04-23T00:58:07;43.97;;;15.20;;
66384;SDS011;53426;55.872;37.462;2023-04-23T01:00:34;39.15;;;14.55;;
66384;SDS011;53426;55.872;37.462;2023-04-23T01:03:14;34.05;;;13.23;;
66384;SDS011;53426;55.872;37.462;2023-04-23T01:05:42;37.25;;;14.98;;
66384;SDS011;53426;55.872;37.462;2023-04-23T01:08:13;25.90;;;13.25;;
66384;SDS011;53426;55.872;37.462;2023-04-23T01:10:41;38.28;;;13.88;;
66384;SDS011;53426;55.872;37.462;2023-04-23T01:13:10;26.25;;;13.00;;
66384;SDS011;53426;55.872;37.462;2023-04-23T01:15:37;35.97;;;14.45;;
66384;SDS011;53426;55.872;37.462;2023-04-23T01:18:03;50.65;;;15.30;;
66384;SDS011;53426;55.872;37.462;2023-04-23T01:20:32;35.60;;;14.15;;
66384;SDS011;53426;55.872;37.462;2023-04-23T01:23:03;28.77;;;14.35;;
66384;SDS011;53426;55.872;37.462;2023-04-23T01:25:30;29.63;;;14.77;;
66384;SDS011;53426;55.872;37.462;2023-04-23T01:27:59;30.35;;;13.70;;
66384;SDS011;53426;55.872;37.462;2023-04-23T01:30:25;29.40;;;14.88;;
66384;SDS011;53426;55.872;37.462;2023-04-23T01:32:53;26.38;;;13.13;;
66384;SDS011;53426;55.872;37.462;2023-04-23T01:35:20;34.65;;;13.82;;
66384;SDS011;53426;55.872;37.462;2023-04-23T01:37:46;31.02;;;13.68;;
66384;SDS011;53426;55.872;37.462;2023-04-23T01:40:14;32.88;;;14.07;;
66384;SDS011;53426;55.872;37.462;2023-04-23T01:42:40;35.28;;;13.23;;
66384;SDS011;53426;55.872;37.462;2023-04-23T01:45:06;26.55;;;13.45;;
66384;SDS011;53426;55.872;37.462;2023-04-23T01:47:33;26.60;;;12.82;;
66384;SDS011;53426;55.872;37.462;2023-04-23T01:50:00;27.90;;;13.60;;
66384;SDS011;53426;55.872;37.462;2023-04-23T01:52:26;24.95;;;12.85;;
66384;SDS011;53426;55.872;37.462;2023-04-23T01:54:51;37.08;;;14.02;;
66384;SDS011;53426;55.872;37.462;2023-04-23T01:57:17;23.70;;;13.27;;
66384;SDS011;53426;55.872;37.462;2023-04-23T01:59:56;35.28;;;14.10;;
66384;SDS011;53426;55.872;37.462;2023-04-23T02:02:40;32.97;;;13.80;;
66384;SDS011;53426;55.872;37.462;2023-04-23T02:05:14;29.17;;;13.00;;
66384;SDS011;53426;55.872;37.462;2023-04-23T02:07:43;31.30;;;12.73;;
66384;SDS011;53426;55.872;37.462;2023-04-23T02:10:10;31.65;;;13.82;;
66384;SDS011;53426;55.872;37.462;2023-04-23T02:12:37;33.42;;;13.18;;
66384;SDS011;53426;55.872;37.462;2023-04-23T02:15:04;31.25;;;12.32;;
66384;SDS011;53426;55.872;37.462;2023-04-23T02:17:32;31.73;;;14.30;;
66384;SDS011;53426;55.872;37.462;2023-04-23T02:19:59;25.17;;;11.50;;
66384;SDS011;53426;55.872;37.462;2023-04-23T02:22:25;15.27;;;10.73;;
66384;SDS011;53426;55.872;37.462;2023-04-23T02:24:56;39.50;;;13.20;;
66384;SDS011;53426;55.872;37.462;2023-04-23T02:27:23;29.13;;;11.73;;
66384;SDS011;53426;55.872;37.462;2023-04-23T02:29:48;27.52;;;11.98;;
66384;SDS011;53426;55.872;37.462;2023-04-23T02:38:13;24.50;;;12.55;;
66384;SDS011;53426;55.872;37.462;2023-04-23T02:40:39;38.05;;;14.60;;
66384;SDS011;53426;55.872;37.462;2023-04-23T02:45:48;24.42;;;12.98;;
66384;SDS011;53426;55.872;37.462;2023-04-23T02:48:13;28.13;;;13.40;;
66384;SDS011;53426;55.872;37.462;2023-04-23T02:50:40;25.20;;;13.98;;
66384;SDS011;53426;55.872;37.462;2023-04-23T02:53:06;34.95;;;13.70;;
66384;SDS011;53426;55.872;37.462;2023-04-23T02:55:32;31.75;;;13.32;;
66384;SDS011;53426;55.872;37.462;2023-04-23T02:58:00;26.52;;;13.95;;
66384;SDS011;53426;55.872;37.462;2023-04-23T03:00:28;24.13;;;13.70;;
66384;SDS011;53426;55.872;37.462;2023-04-23T03:02:54;27.42;;;13.15;;
66384;SDS011;53426;55.872;37.462;2023-04-23T03:05:20;25.17;;;14.52;;
66384;SDS011;53426;55.872;37.462;2023-04-23T03:07:47;26.85;;;13.23;;
66384;SDS011;53426;55.872;37.462;2023-04-23T03:10:13;24.55;;;12.75;;
66384;SDS011;53426;55.872;37.462;2023-04-23T03:16:00;25.13;;;12.25;;
66384;SDS011;53426;55.872;37.462;2023-04-23T03:18:26;21.63;;;12.95;;
66384;SDS011;53426;55.872;37.462;2023-04-23T03:20:53;22.08;;;13.38;;
66384;SDS011;53426;55.872;37.462;2023-04-23T03:23:22;23.83;;;12.68;;
66384;SDS011;53426;55.872;37.462;2023-04-23T03:29:00;26.52;;;12.38;;
66384;SDS011;53426;55.872;37.462;2023-04-23T03:31:25;19.88;;;11.93;;
66384;SDS011;53426;55.872;37.462;2023-04-23T03:33:58;26.50;;;12.52;;
66384;SDS011;53426;55.872;37.462;2023-04-23T03:36:50;19.02;;;10.02;;
66384;SDS011;53426;55.872;37.462;2023-04-23T03:39:16;20.95;;;11.23;;
66384;SDS011;53426;55.872;37.462;2023-04-23T03:41:48;26.80;;;13.13;;
66384;SDS011;53426;55.872;37.462;2023-04-23T03:44:16;19.45;;;11.93;;
66384;SDS011;53426;55.872;37.462;2023-04-23T03:46:44;30.98;;;13.20;;
66384;SDS011;53426;55.872;37.462;2023-04-23T03:49:11;29.00;;;12.60;;
66384;SDS011;53426;55.872;37.462;2023-04-23T03:51:37;21.63;;;12.05;;
66384;SDS011;53426;55.872;37.462;2023-04-23T03:54:03;21.42;;;12.10;;
66384;SDS011;53426;55.872;37.462;2023-04-23T03:56:35;22.17;;;12.48;;
66384;SDS011;53426;55.872;37.462;2023-04-23T03:59:14;21.50;;;12.13;;
66384;SDS011;53426;55.872;37.462;2023-04-23T04:01:40;19.95;;;10.90;;
66384;SDS011;53426;55.872;37.462;2023-04-23T04:04:06;20.23;;;10.82;;
66384;SDS011;53426;55.872;37.462;2023-04-23T04:06:32;18.63;;;11.90;;
66384;SDS011;53426;55.872;37.462;2023-04-23T04:08:58;25.40;;;12.75;;
66384;SDS011;53426;55.872;37.462;2023-04-23T04:11:28;18.73;;;11.90;;
66384;SDS011;53426;55.872;37.462;2023-04-23T04:13:54;33.20;;;12.93;;
66384;SDS011;53426;55.872;37.462;2023-04-23T04:16:19;20.42;;;11.88;;
66384;SDS011;53426;55.872;37.462;2023-04-23T04:18:45;37.17;;;13.95;;
66384;SDS011;53426;55.872;37.462;2023-04-23T04:21:37;29.33;;;13.93;;
66384;SDS011;53426;55.872;37.462;2023-04-23T04:24:03;29.67;;;12.70;;
66384;SDS011;53426;55.872;37.462;2023-04-23T04:26:29;30.65;;;13.73;;
66384;SDS011;53426;55.872;37.462;2023-04-23T04:29:01;40.55;;;13.68;;
66384;SDS011;53426;55.872;37.462;2023-04-23T04:31:27;33.90;;;13.38;;
66384;SDS011;53426;55.872;37.462;2023-04-23T04:33:53;30.25;;;12.68;;
66384;SDS011;53426;55.872;37.462;2023-04-23T04:36:20;26.60;;;12.63;;
66384;SDS011;53426;55.872;37.462;2023-04-23T04:38:48;22.92;;;12.75;;
66384;SDS011;53426;55.872;37.462;2023-04-23T04:41:14;25.80;;;13.07;;
66384;SDS011;53426;55.872;37.462;2023-04-23T04:43:40;17.85;;;12.20;;
66384;SDS011;53426;55.872;37.462;2023-04-23T04:46:10;21.67;;;11.90;;
66384;SDS011;53426;55.872;37.462;2023-04-23T04:48:36;26.55;;;12.13;;
66384;SDS011;53426;55.872;37.462;2023-04-23T04:51:03;30.15;;;12.77;;
66384;SDS011;53426;55.872;37.462;2023-04-23T04:53:28;22.85;;;11.80;;
66384;SDS011;53426;55.872;37.462;2023-04-23T04:55:54;33.25;;;12.77;;
66384;SDS011;53426;55.872;37.462;2023-04-23T04:58:20;24.08;;;11.63;;
66384;SDS011;53426;55.872;37.462;2023-04-23T05:00:46;21.88;;;11.32;;
66384;SDS011;53426;55.872;37.462;2023-04-23T05:03:19;22.08;;;11.75;;
66384;SDS011;53426;55.872;37.462;2023-04-23T05:05:47;23.45;;;10.85;;
66384;SDS011;53426;55.872;37.462;2023-04-23T05:08:13;23.42;;;11.63;;
66384;SDS011;53426;55.872;37.462;2023-04-23T05:10:42;18.60;;;11.30;;
66384;SDS011;53426;55.872;37.462;2023-04-23T05:13:09;32.60;;;10.98;;
66384;SDS011;53426;55.872;37.462;2023-04-23T05:15:41;19.77;;;10.90;;
66384;SDS011;53426;55.872;37.462;2023-04-23T05:18:09;34.38;;;12.05;;
66384;SDS011;53426;55.872;37.462;2023-04-23T05:20:38;31.05;;;11.57;;
66384;SDS011;53426;55.872;37.462;2023-04-23T05:24:13;17.77;;;10.63;;
66384;SDS011;53426;55.872;37.462;2023-04-23T05:26:39;25.38;;;11.32;;
66384;SDS011;53426;55.872;37.462;2023-04-23T05:29:05;18.35;;;11.57;;
66384;SDS011;53426;55.872;37.462;2023-04-23T05:31:31;20.27;;;10.85;;
66384;SDS011;53426;55.872;37.462;2023-04-23T05:33:57;22.77;;;10.63;;
66384;SDS011;53426;55.872;37.462;2023-04-23T05:36:23;24.10;;;10.73;;
66384;SDS011;53426;55.872;37.462;2023-04-23T05:38:49;22.65;;;10.80;;
66384;SDS011;53426;55.872;37.462;2023-04-23T05:41:15;19.80;;;11.02;;
66384;SDS011;53426;55.872;37.462;2023-04-23T05:43:41;22.70;;;11.18;;
66384;SDS011;53426;55.872;37.462;2023-04-23T05:46:07;25.25;;;11.70;;
66384;SDS011;53426;55.872;37.462;2023-04-23T05:48:33;40.85;;;12.30;;
66384;SDS011;53426;55.872;37.462;2023-04-23T05:50:59;39.83;;;11.23;;
66384;SDS011;53426;55.872;37.462;2023-04-23T05:53:25;40.38;;;11.23;;
66384;SDS011;53426;55.872;37.462;2023-04-23T05:55:52;29.55;;;11.18;;
66384;SDS011;53426;55.872;37.462;2023-04-23T05:58:18;24.60;;;11.10;;
66384;SDS011;53426;55.872;37.462;2023-04-23T06:00:44;19.30;;;10.98;;
66384;SDS011;53426;55.872;37.462;2023-04-23T06:03:10;26.73;;;12.57;;
66384;SDS011;53426;55.872;37.462;2023-04-23T06:05:35;24.73;;;10.90;;
66384;SDS011;53426;55.872;37.462;2023-04-23T06:08:02;26.85;;;11.27;;
66384;SDS011;53426;55.872;37.462;2023-04-23T06:10:28;25.50;;;10.73;;
66384;SDS011;53426;55.872;37.462;2023-04-23T06:12:54;29.20;;;10.65;;
66384;SDS011;53426;55.872;37.462;2023-04-23T06:15:20;24.58;;;11.45;;
66384;SDS011;53426;55.872;37.462;2023-04-23T06:17:48;30.33;;;11.43;;
66384;SDS011;53426;55.872;37.462;2023-04-23T06:20:14;28.33;;;12.25;;
66384;SDS011;53426;55.872;37.462;2023-04-23T06:22:40;25.80;;;11.68;;
66384;SDS011;53426;55.872;37.462;2023-04-23T06:25:06;31.15;;;11.15;;
66384;SDS011;53426;55.872;37.462;2023-04-23T06:27:32;24.33;;;11.13;;
66384;SDS011;53426;55.872;37.462;2023-04-23T06:30:03;21.92;;;11.43;;
66384;SDS011;53426;55.872;37.462;2023-04-23T06:32:30;29.05;;;11.65;;
66384;SDS011;53426;55.872;37.462;2023-04-23T06:34:56;20.48;;;10.73;;
66384;SDS011;53426;55.872;37.462;2023-04-23T06:37:22;25.30;;;10.77;;
66384;SDS011;53426;55.872;37.462;2023-04-23T06:39:48;29.38;;;10.75;;
66384;SDS011;53426;55.872;37.462;2023-04-23T06:42:14;25.75;;;10.98;;
66384;SDS011;53426;55.872;37.462;2023-04-23T06:44:49;21.50;;;11.15;;
66384;SDS011;53426;55.872;37.462;2023-04-23T06:47:16;32.97;;;11.05;;
66384;SDS011;53426;55.872;37.462;2023-04-23T06:49:42;31.48;;;11.00;;
66384;SDS011;53426;55.872;37.462;2023-04-23T06:52:07;27.73;;;11.15;;
66384;SDS011;53426;55.872;37.462;2023-04-23T06:54:33;17.25;;;9.82;;
66384;SDS011;53426;55.872;37.462;2023-04-23T06:56:59;19.55;;;10.40;;
66384;SDS011;53426;55.872;37.462;2023-04-23T06:59:25;19.88;;;10.68;;
66384;SDS011;53426;55.872;37.462;2023-04-23T07:01:54;24.52;;;10.18;;
66384;SDS011;53426;55.872;37.462;2023-04-23T07:04:20;16.13;;;9.10;;
66384;SDS011;53426;55.872;37.462;2023-04-23T07:06:45;17.75;;;9.48;;
66384;SDS011;53426;55.872;37.462;2023-04-23T07:09:11;15.07;;;9.15;;
66384;SDS011;53426;55.872;37.462;2023-04-23T07:11:37;14.63;;;8.85;;
66384;SDS011;53426;55.872;37.462;2023-04-23T07:14:03;19.40;;;9.23;;
66384;SDS011;53426;55.872;37.462;2023-04-23T07:16:29;12.02;;;8.65;;
66384;SDS011;53426;55.872;37.462;2023-04-23T07:18:58;12.35;;;8.52;;
66384;SDS011;53426;55.872;37.462;2023-04-23T07:21:26;24.98;;;8.95;;
66384;SDS011;53426;55.872;37.462;2023-04-23T07:23:56;21.83;;;8.68;;
66384;SDS011;53426;55.872;37.462;2023-04-23T07:32:11;21.67;;;8.65;;
66384;SDS011;53426;55.872;37.462;2023-04-23T07:34:38;20.48;;;8.38;;
66384;SDS011;53426;55.872;37.462;2023-04-23T07:37:04;21.33;;;8.43;;
66384;SDS011;53426;55.872;37.462;2023-04-23T07:39:31;10.82;;;6.57;;
66384;SDS011;53426;55.872;37.462;2023-04-23T07:41:57;14.95;;;6.00;;
66384;SDS011;53426;55.872;37.462;2023-04-23T07:44:23;11.50;;;5.75;;
66384;SDS011;53426;55.872;37.462;2023-04-23T07:46:50;16.00;;;6.15;;
66384;SDS011;53426;55.872;37.462;2023-04-23T07:49:16;14.50;;;6.03;;
66384;SDS011;53426;55.872;37.462;2023-04-23T07:51:43;15.88;;;5.68;;
66384;SDS011;53426;55.872;37.462;2023-04-23T07:54:08;11.07;;;5.38;;
66384;SDS011;53426;55.872;37.462;2023-04-23T07:56:34;14.32;;;5.28;;
66384;SDS011;53426;55.872;37.462;2023-04-23T07:59:00;10.63;;;4.70;;
66384;SDS011;53426;55.872;37.462;2023-04-23T08:01:27;19.10;;;4.88;;
66384;SDS011;53426;55.872;37.462;2023-04-23T08:03:53;6.68;;;4.90;;
66384;SDS011;53426;55.872;37.462;2023-04-23T08:06:21;11.90;;;4.10;;
66384;SDS011;53426;55.872;37.462;2023-04-23T08:08:48;5.28;;;3.65;;
66384;SDS011;53426;55.872;37.462;2023-04-23T08:11:15;8.73;;;4.07;;
66384;SDS011;53426;55.872;37.462;2023-04-23T08:13:41;8.07;;;4.38;;
66384;SDS011;53426;55.872;37.462;2023-04-23T08:16:07;11.25;;;3.67;;
66384;SDS011;53426;55.872;37.462;2023-04-23T08:18:33;12.90;;;4.10;;
66384;SDS011;53426;55.872;37.462;2023-04-23T08:21:01;4.30;;;3.00;;
66384;SDS011;53426;55.872;37.462;2023-04-23T08:23:28;5.65;;;3.05;;
66384;SDS011;53426;55.872;37.462;2023-04-23T08:25:56;7.05;;;2.70;;
66384;SDS011;53426;55.872;37.462;2023-04-23T08:28:22;7.93;;;2.47;;
66384;SDS011;53426;55.872;37.462;2023-04-23T08:30:48;3.95;;;1.73;;
66384;SDS011;53426;55.872;37.462;2023-04-23T08:33:14;8.70;;;2.13;;
66384;SDS011;53426;55.872;37.462;2023-04-23T08:35:40;8.18;;;2.40;;
66384;SDS011;53426;55.872;37.462;2023-04-23T08:38:06;6.38;;;1.95;;
66384;SDS011;53426;55.872;37.462;2023-04-23T08:40:32;9.32;;;2.10;;
66384;SDS011;53426;55.872;37.462;2023-04-23T08:43:02;4.95;;;2.20;;
66384;SDS011;53426;55.872;37.462;2023-04-23T08:45:45;2.97;;;2.00;;
66384;SDS011;53426;55.872;37.462;2023-04-23T08:48:13;5.97;;;1.38;;
66384;SDS011;53426;55.872;37.462;2023-04-23T08:50:43;9.35;;;2.03;;
66384;SDS011;53426;55.872;37.462;2023-04-23T08:53:10;8.40;;;1.80;;
66384;SDS011;53426;55.872;37.462;2023-04-23T08:55:44;2.90;;;2.00;;
66384;SDS011;53426;55.872;37.462;2023-04-23T08:58:10;3.10;;;1.80;;
66384;SDS011;53426;55.872;37.462;2023-04-23T09:00:36;7.45;;;1.92;;
66384;SDS011;53426;55.872;37.462;2023-04-23T09:03:02;3.47;;;1.80;;
66384;SDS011;53426;55.872;37.462;2023-04-23T09:05:28;4.85;;;1.70;;
66384;SDS011;53426;55.872;37.462;2023-04-23T09:07:55;3.15;;;1.63;;
66384;SDS011;53426;55.872;37.462;2023-04-23T09:10:23;8.20;;;1.92;;
66384;SDS011;53426;55.872;37.462;2023-04-23T09:12:49;6.13;;;1.90;;
66384;SDS011;53426;55.872;37.462;2023-04-23T09:15:15;5.10;;;2.10;;
66384;SDS011;53426;55.872;37.462;2023-04-23T09:17:43;6.70;;;1.83;;
66384;SDS011;53426;55.872;37.462;2023-04-23T09:20:11;3.50;;;2.05;;
66384;SDS011;53426;55.872;37.462;2023-04-23T09:22:44;1.98;;;1.88;;
66384;SDS011;53426;55.872;37.462;2023-04-23T09:25:15;8.15;;;2.10;;
66384;SDS011;53426;55.872;37.462;2023-04-23T09:27:44;2.25;;;1.83;;
66384;SDS011;53426;55.872;37.462;2023-04-23T09:30:11;3.90;;;1.73;;
66384;SDS011;53426;55.872;37.462;2023-04-23T09:32:38;2.58;;;1.50;;
66384;SDS011;53426;55.872;37.462;2023-04-23T09:35:10;7.22;;;1.60;;
66384;SDS011;53426;55.872;37.462;2023-04-23T09:37:40;5.00;;;1.77;;
66384;SDS011;53426;55.872;37.462;2023-04-23T09:40:07;9.48;;;1.80;;
66384;SDS011;53426;55.872;37.462;2023-04-23T09:42:34;10.52;;;2.30;;
66384;SDS011;53426;55.872;37.462;2023-04-23T09:47:33;7.18;;;2.00;;
66384;SDS011;53426;55.872;37.462;2023-04-23T09:50:00;5.80;;;1.63;;
66384;SDS011;53426;55.872;37.462;2023-04-23T09:52:26;3.08;;;1.80;;
66384;SDS011;53426;55.872;37.462;2023-04-23T09:54:55;8.48;;;1.80;;
66384;SDS011;53426;55.872;37.462;2023-04-23T09:57:24;9.73;;;2.15;;
66384;SDS011;53426;55.872;37.462;2023-04-23T09:59:51;12.13;;;2.20;;
66384;SDS011;53426;55.872;37.462;2023-04-23T10:02:25;2.00;;;1.80;;
66384;SDS011;53426;55.872;37.462;2023-04-23T10:04:52;8.10;;;2.38;;
66384;SDS011;53426;55.872;37.462;2023-04-23T10:07:18;3.35;;;2.08;;
66384;SDS011;53426;55.872;37.462;2023-04-23T10:09:45;4.88;;;1.80;;
66384;SDS011;53426;55.872;37.462;2023-04-23T10:12:11;10.88;;;1.95;;
66384;SDS011;53426;55.872;37.462;2023-04-23T10:14:38;9.40;;;2.45;;
66384;SDS011;53426;55.872;37.462;2023-04-23T10:17:05;4.57;;;2.20;;
66384;SDS011;53426;55.872;37.462;2023-04-23T10:19:31;2.78;;;1.90;;
66384;SDS011;53426;55.872;37.462;2023-04-23T10:22:03;10.57;;;2.30;;
66384;SDS011;53426;55.872;37.462;2023-04-23T10:24:31;3.80;;;2.10;;
66384;SDS011;53426;55.872;37.462;2023-04-23T10:26:59;3.03;;;1.77;;
66384;SDS011;53426;55.872;37.462;2023-04-23T10:29:28;5.78;;;2.05;;
66384;SDS011;53426;55.872;37.462;2023-04-23T10:31:59;2.47;;;1.60;;
66384;SDS011;53426;55.872;37.462;2023-04-23T10:34:27;3.03;;;1.92;;
66384;SDS011;53426;55.872;37.462;2023-04-23T10:36:54;3.38;;;1.85;;
66384;SDS011;53426;55.872;37.462;2023-04-23T10:39:26;4.85;;;2.38;;
66384;SDS011;53426;55.872;37.462;2023-04-23T10:41:54;6.55;;;2.25;;
66384;SDS011;53426;55.872;37.462;2023-04-23T10:44:21;8.93;;;2.50;;
66384;SDS011;53426;55.872;37.462;2023-04-23T10:46:54;8.60;;;2.03;;
66384;SDS011;53426;55.872;37.462;2023-04-23T10:49:22;4.38;;;2.20;;
66384;SDS011;53426;55.872;37.462;2023-04-23T10:51:59;5.35;;;1.80;;
66384;SDS011;53426;55.872;37.462;2023-04-23T10:54:39;3.38;;;1.60;;
66384;SDS011;53426;55.872;37.462;2023-04-23T10:57:06;8.93;;;1.88;;
66384;SDS011;53426;55.872;37.462;2023-04-23T10:59:34;6.03;;;1.98;;
66384;SDS011;53426;55.872;37.462;2023-04-23T11:02:10;3.25;;;2.00;;
66384;SDS011;53426;55.872;37.462;2023-04-23T11:04:46;8.88;;;1.83;;
66384;SDS011;53426;55.872;37.462;2023-04-23T11:07:19;6.18;;;2.20;;
66384;SDS011;53426;55.872;37.462;2023-04-23T11:09:45;5.82;;;1.60;;
66384;SDS011;53426;55.872;37.462;2023-04-23T11:14:54;6.28;;;1.80;;
66384;SDS011;53426;55.872;37.462;2023-04-23T11:17:21;3.83;;;1.90;;
66384;SDS011;53426;55.872;37.462;2023-04-23T11:20:18;1.73;;;1.50;;
66384;SDS011;53426;55.872;37.462;2023-04-23T11:22:46;3.58;;;1.52;;
66384;SDS011;53426;55.872;37.462;2023-04-23T11:25:14;4.85;;;2.00;;
66384;SDS011;53426;55.872;37.462;2023-04-23T11:27:41;5.88;;;2.10;;
66384;SDS011;53426;55.872;37.462;2023-04-23T11:30:11;2.08;;;1.98;;
66384;SDS011;53426;55.872;37.462;2023-04-23T11:32:46;14.18;;;2.50;;
66384;SDS011;53426;55.872;37.462;2023-04-23T11:35:17;3.97;;;2.00;;
66384;SDS011;53426;55.872;37.462;2023-04-23T11:37:44;4.93;;;1.90;;
66384;SDS011;53426;55.872;37.462;2023-04-23T11:40:13;4.10;;;1.90;;
66384;SDS011;53426;55.872;37.462;2023-04-23T11:45:14;4.93;;;2.03;;
66384;SDS011;53426;55.872;37.462;2023-04-23T11:47:54;4.40;;;2.38;;
66384;SDS011;53426;55.872;37.462;2023-04-23T11:50:23;8.88;;;2.00;;
66384;SDS011;53426;55.872;37.462;2023-04-23T11:52:55;5.05;;;2.13;;
66384;SDS011;53426;55.872;37.462;2023-04-23T11:55:21;2.08;;;1.80;;
66384;SDS011;53426;55.872;37.462;2023-04-23T11:57:49;7.57;;;2.30;;
66384;SDS011;53426;55.872;37.462;2023-04-23T12:05:28;6.55;;;1.98;;
66384;SDS011;53426;55.872;37.462;2023-04-23T12:08:14;3.08;;;2.38;;
66384;SDS011;53426;55.872;37.462;2023-04-23T12:10:54;2.28;;;2.05;;
66384;SDS011;53426;55.872;37.462;2023-04-23T12:13:28;6.95;;;2.45;;
66384;SDS011;53426;55.872;37.462;2023-04-23T12:16:01;3.30;;;2.30;;
66384;SDS011;53426;55.872;37.462;2023-04-23T12:18:29;5.03;;;2.35;;
66384;SDS011;53426;55.872;37.462;2023-04-23T12:21:06;14.60;;;2.30;;
66384;SDS011;53426;55.872;37.462;2023-04-23T12:23:36;7.30;;;2.30;;
66384;SDS011;53426;55.872;37.462;2023-04-23T12:26:08;11.98;;;2.22;;
66384;SDS011;53426;55.872;37.462;2023-04-23T12:34:01;5.22;;;2.38;;
66384;SDS011;53426;55.872;37.462;2023-04-23T12:36:32;3.22;;;2.22;;
66384;SDS011;53426;55.872;37.462;2023-04-23T12:41:54;4.32;;;2.65;;
66384;SDS011;53426;55.872;37.462;2023-04-23T12:44:23;2.60;;;2.38;;
66384;SDS011;53426;55.872;37.462;2023-04-23T12:46:55;5.00;;;2.13;;
66384;SDS011;53426;55.872;37.462;2023-04-23T12:49:28;11.05;;;2.35;;
66384;SDS011;53426;55.872;37.462;2023-04-23T12:51:54;2.45;;;1.95;;
66384;SDS011;53426;55.872;37.462;2023-04-23T12:54:28;7.13;;;2.00;;
66384;SDS011;53426;55.872;37.462;2023-04-23T12:56:56;4.97;;;2.10;;
66384;SDS011;53426;55.872;37.462;2023-04-23T12:59:29;5.93;;;2.30;;
66384;SDS011;53426;55.872;37.462;2023-04-23T13:01:56;13.73;;;2.63;;
66384;SDS011;53426;55.872;37.462;2023-04-23T13:04:26;5.93;;;2.90;;
66384;SDS011;53426;55.872;37.462;2023-04-23T13:06:53;2.17;;;1.98;;
66384;SDS011;53426;55.872;37.462;2023-04-23T13:09:19;10.40;;;2.55;;
66384;SDS011;53426;55.872;37.462;2023-04-23T13:11:46;10.05;;;2.85;;
66384;SDS011;53426;55.872;37.462;2023-04-23T13:14:14;4.15;;;2.38;;
66384;SDS011;53426;55.872;37.462;2023-04-23T13:16:41;12.75;;;3.20;;
66384;SDS011;53426;55.872;37.462;2023-04-23T13:19:10;5.15;;;2.60;;
66384;SDS011;53426;55.872;37.462;2023-04-23T13:21:38;5.78;;;2.88;;
66384;SDS011;53426;55.872;37.462;2023-04-23T13:24:04;3.38;;;2.30;;
66384;SDS011;53426;55.872;37.462;2023-04-23T13:26:30;9.40;;;3.15;;
66384;SDS011;53426;55.872;37.462;2023-04-23T13:28:58;8.40;;;2.85;;
66384;SDS011;53426;55.872;37.462;2023-04-23T13:31:26;10.02;;;2.25;;
66384;SDS011;53426;55.872;37.462;2023-04-23T13:33:52;4.07;;;2.95;;
66384;SDS011;53426;55.872;37.462;2023-04-23T13:36:19;8.57;;;2.35;;
66384;SDS011;53426;55.872;37.462;2023-04-23T13:38:45;5.57;;;2.53;;
66384;SDS011;53426;55.872;37.462;2023-04-23T13:41:11;3.65;;;2.75;;
66384;SDS011;53426;55.872;37.462;2023-04-23T13:43:37;6.75;;;2.50;;
66384;SDS011;53426;55.872;37.462;2023-04-23T13:46:03;11.63;;;2.67;;
66384;SDS011;53426;55.872;37.462;2023-04-23T13:48:33;3.35;;;2.45;;
66384;SDS011;53426;55.872;37.462;2023-04-23T13:50:59;5.97;;;2.80;;
66384;SDS011;53426;55.872;37.462;2023-04-23T13:53:26;10.82;;;2.50;;
66384;SDS011;53426;55.872;37.462;2023-04-23T13:55:53;5.57;;;2.65;;
66384;SDS011;53426;55.872;37.462;2023-04-23T13:58:20;5.32;;;2.08;;
66384;SDS011;53426;55.872;37.462;2023-04-23T14:00:47;5.95;;;2.60;;
66384;SDS011;53426;55.872;37.462;2023-04-23T14:03:14;4.53;;;1.92;;
66384;SDS011;53426;55.872;37.462;2023-04-23T14:05:39;10.55;;;2.70;;
66384;SDS011;53426;55.872;37.462;2023-04-23T14:08:05;5.43;;;2.60;;
66384;SDS011;53426;55.872;37.462;2023-04-23T14:10:32;6.10;;;2.03;;
66384;SDS011;53426;55.872;37.462;2023-04-23T14:12:59;3.83;;;2.38;;
66384;SDS011;53426;55.872;37.462;2023-04-23T14:15:25;4.80;;;2.40;;
66384;SDS011;53426;55.872;37.462;2023-04-23T14:17:51;5.05;;;2.15;;
66384;SDS011;53426;55.872;37.462;2023-04-23T14:20:17;6.63;;;2.42;;
66384;SDS011;53426;55.872;37.462;2023-04-23T14:22:48;4.03;;;2.35;;
66384;SDS011;53426;55.872;37.462;2023-04-23T14:25:23;7.63;;;3.03;;
66384;SDS011;53426;55.872;37.462;2023-04-23T14:28:33;4.55;;;2.15;;
66384;SDS011;53426;55.872;37.462;2023-04-23T14:31:03;13.35;;;2.72;;
66384;SDS011;53426;55.872;37.462;2023-04-23T14:33:29;5.85;;;2.90;;
66384;SDS011;53426;55.872;37.462;2023-04-23T14:35:55;5.75;;;2.40;;
66384;SDS011;53426;55.872;37.462;2023-04-23T14:38:21;6.00;;;2.30;;
66384;SDS011;53426;55.872;37.462;2023-04-23T14:40:47;3.00;;;2.30;;
66384;SDS011;53426;55.872;37.462;2023-04-23T14:43:13;5.00;;;2.40;;
66384;SDS011;53426;55.872;37.462;2023-04-23T14:45:40;2.55;;;2.10;;
66384;SDS011;53426;55.872;37.462;2023-04-23T14:48:06;5.10;;;2.17;;
66384;SDS011;53426;55.872;37.462;2023-04-23T14:50:35;9.07;;;2.97;;
66384;SDS011;53426;55.872;37.462;2023-04-23T14:53:01;9.20;;;2.50;;
66384;SDS011;53426;55.872;37.462;2023-04-23T14:55:31;2.50;;;2.30;;
66384;SDS011;53426;55.872;37.462;2023-04-23T14:57:57;17.80;;;3.97;;
66384;SDS011;53426;55.872;37.462;2023-04-23T15:00:24;6.93;;;2.50;;
66384;SDS011;53426;55.872;37.462;2023-04-23T15:02:50;6.60;;;1.88;;
66384;SDS011;53426;55.872;37.462;2023-04-23T15:05:16;12.82;;;2.60;;
66384;SDS011;53426;55.872;37.462;2023-04-23T15:07:44;10.93;;;3.10;;
66384;SDS011;53426;55.872;37.462;2023-04-23T15:10:10;2.47;;;2.20;;